createdAt,value
2019-05-06T00:05:40.747Z,23.60
2019-05-06T00:10:35.741Z,22.90
2019-05-06T00:17:57.931Z,23.20
2019-05-06T00:35:50.161Z,23.20
2019-05-06T00:43:26.396Z,23.10
2019-05-06T00:45:53.651Z,22.80
2019-05-06T00:48:20.727Z,22.50
2019-05-06T00:50:47.064Z,22.20
2019-05-06T00:53:15.016Z,23.00
2019-05-06T00:58:07.916Z,22.60
2019-05-06T01:05:30.013Z,23.10
2019-05-06T01:10:23.848Z,23.20
2019-05-06T01:12:54.410Z,23.20
2019-05-06T01:15:23.857Z,22.40
2019-05-06T01:17:50.376Z,22.40
2019-05-06T01:27:41.463Z,22.40
2019-05-06T01:37:30.848Z,22.90
2019-05-06T01:40:16.028Z,22.70
2019-05-06T01:47:37.565Z,22.70
2019-05-06T01:50:05.817Z,22.50
2019-05-06T01:55:00.463Z,22.10
2019-05-06T01:57:26.816Z,22.70
2019-05-06T01:59:53.915Z,22.70
2019-05-06T02:02:20.372Z,22.80
2019-05-06T02:07:14.478Z,22.50
2019-05-06T02:12:07.935Z,22.50
2019-05-06T02:19:29.696Z,22.20
2019-05-06T02:22:00.413Z,22.40
2019-05-06T02:27:04.693Z,21.80
2019-05-06T02:29:34.161Z,21.80
2019-05-06T02:32:26.254Z,22.10
2019-05-06T02:34:50.765Z,21.80
2019-05-06T02:39:53.363Z,21.80
2019-05-06T02:42:20.246Z,22.70
2019-05-06T02:47:14.950Z,21.90
2019-05-06T02:52:14.044Z,22.30
2019-05-06T02:54:42.737Z,22.00
2019-05-06T02:59:35.288Z,22.20
2019-05-06T03:04:29.687Z,22.50
2019-05-06T03:11:53.643Z,21.60
2019-05-06T03:14:18.717Z,22.30
2019-05-06T03:16:44.761Z,22.30
2019-05-06T03:19:13.271Z,22.10
2019-05-06T03:21:44.986Z,21.70
2019-05-06T03:24:16.496Z,21.90
2019-05-06T03:26:43.840Z,21.80
2019-05-06T03:29:13.515Z,21.60
2019-05-06T03:34:27.863Z,21.70
2019-05-06T03:39:03.094Z,22.10
2019-05-06T03:41:29.061Z,21.40
2019-05-06T03:49:13.351Z,21.20
2019-05-06T03:51:38.154Z,21.80
2019-05-06T03:54:04.284Z,21.50
2019-05-06T04:06:23.881Z,21.40
2019-05-06T04:08:48.806Z,21.20
2019-05-06T04:11:16.822Z,21.70
2019-05-06T04:13:46.164Z,21.30
2019-05-06T04:21:26.612Z,21.00
2019-05-06T04:26:46.431Z,21.60
2019-05-06T04:29:14.095Z,21.10
2019-05-06T04:34:14.612Z,21.90
2019-05-06T04:44:02.884Z,21.40
2019-05-06T04:51:24.693Z,21.00
2019-05-06T04:56:19.868Z,21.60
2019-05-06T04:58:47.951Z,20.90
2019-05-06T05:01:15.757Z,21.30
2019-05-06T05:06:13.395Z,21.50
2019-05-06T05:08:38.627Z,21.60
2019-05-06T05:11:08.421Z,21.10
2019-05-06T05:13:45.714Z,21.50
2019-05-06T05:16:21.716Z,21.70
2019-05-06T05:18:50.000Z,21.00
2019-05-06T05:21:16.464Z,20.70
2019-05-06T05:26:12.054Z,21.00
2019-05-06T05:31:05.530Z,20.70
2019-05-06T05:40:54.915Z,21.30
2019-05-06T05:43:24.503Z,21.30
2019-05-06T05:45:52.322Z,21.30
2019-05-06T05:48:20.475Z,20.60
2019-05-06T05:50:46.560Z,21.70
2019-05-06T05:55:42.290Z,21.60
2019-05-06T05:58:08.232Z,21.60
2019-05-06T06:00:35.401Z,21.50
2019-05-06T06:05:29.535Z,21.10
2019-05-06T06:07:55.688Z,21.30
2019-05-06T06:15:26.633Z,21.30
2019-05-06T06:20:47.772Z,20.70
2019-05-06T06:23:17.532Z,21.50
2019-05-06T06:25:43.911Z,21.30
2019-05-06T06:28:11.962Z,21.00
2019-05-06T06:30:46.613Z,20.40
2019-05-06T06:35:42.604Z,21.30
2019-05-06T06:38:16.965Z,20.70
2019-05-06T06:40:44.732Z,21.10
2019-05-06T06:43:13.788Z,21.10
2019-05-06T06:45:42.037Z,20.40
2019-05-06T06:48:07.927Z,21.40
2019-05-06T06:50:34.349Z,21.60
2019-05-06T06:55:28.752Z,21.10
2019-05-06T06:57:57.937Z,21.10
2019-05-06T07:00:33.557Z,21.10
2019-05-06T07:05:42.354Z,21.30
2019-05-06T07:08:09.444Z,20.70
2019-05-06T07:10:37.757Z,21.00
2019-05-06T07:15:33.287Z,21.40
2019-05-06T07:17:59.103Z,21.90
2019-05-06T07:20:27.380Z,21.00
2019-05-06T07:22:53.432Z,21.70
2019-05-06T07:25:19.471Z,21.30
2019-05-06T07:32:42.436Z,21.80
2019-05-06T07:35:09.450Z,22.20
2019-05-06T07:37:35.506Z,22.50
2019-05-06T07:40:03.090Z,21.60
2019-05-06T07:42:40.427Z,22.10
2019-05-06T07:45:16.013Z,22.00
2019-05-06T07:47:44.108Z,22.00
2019-05-06T07:50:13.013Z,22.20
2019-05-06T07:52:42.169Z,22.20
2019-05-06T07:55:11.991Z,22.10
2019-05-06T08:00:07.419Z,22.30
2019-05-06T08:02:33.797Z,22.00
2019-05-06T08:04:59.852Z,22.20
2019-05-06T08:07:26.248Z,22.30
2019-05-06T08:09:52.822Z,22.60
2019-05-06T08:12:22.084Z,21.90
2019-05-06T08:14:47.848Z,21.60
2019-05-06T08:17:16.609Z,22.50
2019-05-06T08:22:23.261Z,21.80
2019-05-06T08:24:49.427Z,22.00
2019-05-06T08:27:15.723Z,22.20
2019-05-06T08:29:42.568Z,21.80
2019-05-06T08:32:08.968Z,22.30
2019-05-06T08:34:35.327Z,22.00
2019-05-06T08:42:04.330Z,22.20
2019-05-06T08:44:32.260Z,21.60
2019-05-06T08:46:58.375Z,21.70
2019-05-06T08:49:24.452Z,22.80
2019-05-06T08:52:07.141Z,22.40
2019-05-06T08:54:38.385Z,22.60
2019-05-06T08:57:04.427Z,22.60
2019-05-06T08:59:32.109Z,22.70
2019-05-06T09:02:02.952Z,21.70
2019-05-06T09:06:55.047Z,22.50
2019-05-06T09:11:49.025Z,22.30
2019-05-06T09:14:15.101Z,22.20
2019-05-06T09:16:43.735Z,22.70
2019-05-06T09:19:12.684Z,22.10
2019-05-06T09:21:38.393Z,22.70
2019-05-06T09:24:04.476Z,21.70
2019-05-06T09:29:06.628Z,22.00
2019-05-06T09:31:37.365Z,21.90
2019-05-06T09:34:07.877Z,22.80
2019-05-06T09:36:44.252Z,22.00
2019-05-06T09:39:05.500Z,21.60
2019-05-06T09:41:32.478Z,22.70
2019-05-06T09:43:59.840Z,22.30
2019-05-06T09:46:25.927Z,22.00
2019-05-06T09:48:54.141Z,22.60
2019-05-06T09:51:22.121Z,22.50
2019-05-06T09:54:08.471Z,21.90
2019-05-06T09:56:36.431Z,22.60
2019-05-06T09:59:03.728Z,22.30
2019-05-06T10:04:03.190Z,21.80
2019-05-06T10:06:28.169Z,22.30
2019-05-06T10:08:54.576Z,22.80
2019-05-06T10:11:22.324Z,22.00
2019-05-06T10:13:48.827Z,22.30
2019-05-06T10:16:15.199Z,21.90
2019-05-06T10:18:41.256Z,22.20
2019-05-06T10:21:07.558Z,21.80
2019-05-06T10:23:33.640Z,21.50
2019-05-06T10:25:59.697Z,21.80
2019-05-06T10:30:59.589Z,22.60
2019-05-06T10:33:27.544Z,21.80
2019-05-06T10:35:53.643Z,21.60
2019-05-06T10:41:07.776Z,21.40
2019-05-06T10:43:38.495Z,21.50
2019-05-06T10:46:04.580Z,22.20
2019-05-06T10:48:30.627Z,22.60
2019-05-06T10:50:58.581Z,22.10
2019-05-06T10:53:24.667Z,22.50
2019-05-06T10:58:22.738Z,22.50
2019-05-06T11:00:53.089Z,21.40
2019-05-06T11:03:23.334Z,22.20
2019-05-06T11:08:18.936Z,21.90
2019-05-06T11:10:45.981Z,22.30
2019-05-06T11:13:12.958Z,22.00
2019-05-06T11:15:39.904Z,21.80
2019-05-06T11:18:06.294Z,22.20
2019-05-06T11:23:02.115Z,22.10
2019-05-06T11:25:28.752Z,22.20
2019-05-06T11:27:55.092Z,21.50
2019-05-06T11:30:38.270Z,22.10
2019-05-06T11:35:53.036Z,21.60
2019-05-06T11:38:22.756Z,21.90
2019-05-06T11:40:49.236Z,22.00
2019-05-06T11:45:42.734Z,22.30
2019-05-06T11:48:09.596Z,21.80
2019-05-06T11:55:36.186Z,22.10
2019-05-06T11:57:56.769Z,21.80
2019-05-06T12:02:53.311Z,21.40
2019-05-06T12:05:22.241Z,21.20
2019-05-06T12:08:00.895Z,22.20
2019-05-06T12:10:15.921Z,22.10
2019-05-06T12:12:42.560Z,21.40
2019-05-06T12:15:12.554Z,21.50
2019-05-06T12:17:39.444Z,22.10
2019-05-06T12:20:06.591Z,21.20
2019-05-06T12:22:35.688Z,22.20
2019-05-06T12:25:06.289Z,22.00
2019-05-06T12:27:45.217Z,21.40
2019-05-06T12:32:43.354Z,21.40
2019-05-06T12:35:12.470Z,21.20
2019-05-06T12:40:07.022Z,21.20
2019-05-06T12:42:43.935Z,21.40
2019-05-06T12:45:13.519Z,21.50
2019-05-06T12:50:15.283Z,21.30
2019-05-06T12:52:44.107Z,21.20
2019-05-06T13:00:07.773Z,21.80
2019-05-06T13:02:34.141Z,21.40
2019-05-06T13:10:08.911Z,21.10
2019-05-06T13:12:36.188Z,21.10
2019-05-06T13:15:08.164Z,21.20
2019-05-06T13:24:54.839Z,21.80
2019-05-06T13:27:23.650Z,21.20
2019-05-06T13:32:18.364Z,21.70
2019-05-06T13:39:39.638Z,21.10
2019-05-06T13:42:05.837Z,21.70
2019-05-06T13:44:32.191Z,21.40
2019-05-06T13:47:02.785Z,22.00
2019-05-06T13:52:04.840Z,21.90
2019-05-06T13:54:31.214Z,21.10
2019-05-06T14:01:58.667Z,21.90
2019-05-06T14:04:25.191Z,21.90
2019-05-06T14:06:52.836Z,21.40
2019-05-06T14:11:48.273Z,21.00
2019-05-06T14:14:14.355Z,21.50
2019-05-06T14:16:42.587Z,21.00
2019-05-06T14:26:33.549Z,21.30
2019-05-06T14:29:17.995Z,20.90
2019-05-06T14:31:45.981Z,21.70
2019-05-06T14:34:14.233Z,20.70
2019-05-06T14:36:39.982Z,21.40
2019-05-06T14:39:07.971Z,21.00
2019-05-06T14:41:34.024Z,21.70
2019-05-06T14:44:02.361Z,21.50
2019-05-06T14:46:29.967Z,21.40
2019-05-06T14:51:22.467Z,20.70
2019-05-06T14:53:48.856Z,20.50
2019-05-06T14:56:28.840Z,21.70
2019-05-06T14:59:05.990Z,21.50
2019-05-06T15:01:33.781Z,21.60
2019-05-06T15:04:01.901Z,20.50
2019-05-06T15:11:22.834Z,21.30
2019-05-06T15:13:49.499Z,21.20
2019-05-06T15:16:15.840Z,20.80
2019-05-06T15:18:42.433Z,21.60
2019-05-06T15:21:30.032Z,21.10
2019-05-06T15:23:37.702Z,20.70
2019-05-06T15:26:03.753Z,21.30
2019-05-06T15:30:58.720Z,20.50
2019-05-06T15:33:29.432Z,21.10
2019-05-06T15:35:57.427Z,21.30
2019-05-06T15:38:25.411Z,21.40
2019-05-06T15:43:21.967Z,21.10
2019-05-06T15:45:49.145Z,20.30
2019-05-06T15:48:15.524Z,21.40
2019-05-06T15:50:45.344Z,20.40
2019-05-06T15:53:09.538Z,20.70
2019-05-06T15:58:03.531Z,21.50
2019-05-06T16:00:29.805Z,21.10
2019-05-06T16:02:55.883Z,21.40
2019-05-06T16:05:26.174Z,21.00
2019-05-06T16:12:46.988Z,20.60
2019-05-06T16:15:13.114Z,21.10
2019-05-06T16:27:32.899Z,20.40
2019-05-06T16:29:59.203Z,21.00
2019-05-06T16:32:25.545Z,20.80
2019-05-06T16:34:52.467Z,20.30
2019-05-06T16:37:18.768Z,20.60
2019-05-06T16:39:45.135Z,21.10
2019-05-06T16:42:12.927Z,20.50
2019-05-06T16:47:05.588Z,20.80
2019-05-06T16:49:33.521Z,21.00
2019-05-06T16:51:59.621Z,20.80
2019-05-06T16:54:26.917Z,21.20
2019-05-06T16:56:56.215Z,20.40
2019-05-06T16:59:23.866Z,20.30
2019-05-06T17:01:52.320Z,20.90
2019-05-06T17:04:23.247Z,20.30
2019-05-06T17:06:52.472Z,20.90
2019-05-06T17:09:24.431Z,20.20
2019-05-06T17:11:48.735Z,20.60
2019-05-06T17:14:14.820Z,20.40
2019-05-06T17:16:42.412Z,20.10
2019-05-06T17:19:08.761Z,20.40
2019-05-06T17:21:34.841Z,20.90
2019-05-06T17:24:02.301Z,20.90
2019-05-06T17:26:28.952Z,20.00
2019-05-06T17:28:59.695Z,21.00
2019-05-06T17:31:36.980Z,20.60
2019-05-06T17:34:05.736Z,20.00
2019-05-06T17:36:33.691Z,20.50
2019-05-06T17:38:59.776Z,21.10
2019-05-06T17:41:27.961Z,20.70
2019-05-06T17:46:22.735Z,20.90
2019-05-06T17:48:52.677Z,20.40
2019-05-06T17:51:20.927Z,20.30
2019-05-06T17:53:49.199Z,20.90
2019-05-06T17:56:15.248Z,20.20
2019-05-06T17:58:42.339Z,20.50
2019-05-06T18:01:13.184Z,20.50
2019-05-06T18:06:11.632Z,20.80
2019-05-06T18:08:34.043Z,21.00
2019-05-06T18:11:00.092Z,19.90
2019-05-06T18:15:53.120Z,20.50
2019-05-06T18:18:21.899Z,20.80
2019-05-06T18:20:47.642Z,19.90
2019-05-06T18:23:13.690Z,20.30
2019-05-06T18:25:39.784Z,20.90
2019-05-06T18:30:36.533Z,19.80
2019-05-06T18:33:02.317Z,20.30
2019-05-06T18:35:28.792Z,20.70
2019-05-06T18:37:55.127Z,19.70
2019-05-06T18:42:49.557Z,20.60
2019-05-06T18:45:16.512Z,20.00
2019-05-06T18:47:42.552Z,20.20
2019-05-06T18:50:09.642Z,20.50
2019-05-06T18:52:35.731Z,20.60
2019-05-06T18:55:03.628Z,20.20
2019-05-06T18:57:32.291Z,20.70
2019-05-06T19:02:26.699Z,20.50
2019-05-06T19:04:54.285Z,20.20
2019-05-06T19:07:22.107Z,20.10
2019-05-06T19:09:53.021Z,19.70
2019-05-06T19:12:30.149Z,20.80
2019-05-06T19:14:47.019Z,20.50
2019-05-06T19:17:13.900Z,20.10
2019-05-06T19:24:34.828Z,19.70
2019-05-06T19:27:02.097Z,19.50
2019-05-06T19:34:23.670Z,20.00
2019-05-06T19:36:52.717Z,19.70
2019-05-06T19:39:18.663Z,20.40
2019-05-06T19:44:12.851Z,20.60
2019-05-06T19:46:39.545Z,20.60
2019-05-06T19:51:33.050Z,20.10
2019-05-06T19:54:02.093Z,20.50
2019-05-06T19:56:27.920Z,19.70
2019-05-06T19:58:54.232Z,19.70
2019-05-06T20:01:22.726Z,20.00
2019-05-06T20:03:48.618Z,19.40
2019-05-06T20:06:33.463Z,20.10
2019-05-06T20:09:02.392Z,19.50
2019-05-06T20:11:33.616Z,19.50
2019-05-06T20:14:01.950Z,20.00
2019-05-06T20:16:27.952Z,19.80
2019-05-06T20:18:54.362Z,19.80
2019-05-06T20:21:20.408Z,21.00
2019-05-06T20:23:46.459Z,19.50
2019-05-06T20:26:12.546Z,19.90
2019-05-06T20:28:38.608Z,20.20
2019-05-06T20:31:04.696Z,19.70
2019-05-06T20:35:59.197Z,20.10
2019-05-06T20:40:51.956Z,19.90
2019-05-06T20:43:23.085Z,19.40
2019-05-06T20:45:46.316Z,20.20
2019-05-06T20:48:12.984Z,20.50
2019-05-06T20:50:40.010Z,20.40
2019-05-06T20:53:06.343Z,19.30
2019-05-06T20:55:35.390Z,20.50
2019-05-06T21:00:28.832Z,19.50
2019-05-06T21:02:54.879Z,19.70
2019-05-06T21:07:49.852Z,20.30
2019-05-06T21:12:43.183Z,19.50
2019-05-06T21:15:10.043Z,20.40
2019-05-06T21:20:04.941Z,19.70
2019-05-06T21:22:32.020Z,20.00
2019-05-06T21:24:59.397Z,19.30
2019-05-06T21:29:52.861Z,19.80
2019-05-06T21:32:21.877Z,19.70
2019-05-06T21:34:48.063Z,19.50
2019-05-06T21:37:14.124Z,19.80
2019-05-06T21:39:42.256Z,20.10
2019-05-06T21:44:34.603Z,19.90
2019-05-06T21:47:02.890Z,20.10
2019-05-06T21:49:28.912Z,19.50
2019-05-06T21:54:23.165Z,19.80
2019-05-06T21:56:50.000Z,20.20
2019-05-06T21:59:16.291Z,19.20
2019-05-06T22:01:43.160Z,19.60
2019-05-06T22:06:37.959Z,20.10
2019-05-06T22:11:32.658Z,19.80
2019-05-06T22:14:01.747Z,20.00
2019-05-06T22:16:26.937Z,19.40
2019-05-06T22:18:53.206Z,19.70
2019-05-06T22:21:24.633Z,20.00
2019-05-06T22:23:59.143Z,20.10
2019-05-06T22:26:27.791Z,19.60
2019-05-06T22:28:55.305Z,19.30
2019-05-06T22:31:24.289Z,19.80
2019-05-06T22:33:53.331Z,19.20
2019-05-06T22:36:19.384Z,20.20
2019-05-06T22:38:45.736Z,19.90
2019-05-06T22:43:38.495Z,19.60
2019-05-06T22:48:32.387Z,19.50
2019-05-06T22:50:58.764Z,19.30
2019-05-06T22:55:52.703Z,19.30
2019-05-06T22:58:18.825Z,19.40
2019-05-06T23:00:53.691Z,19.90
2019-05-06T23:03:25.521Z,19.90
2019-05-06T23:05:51.849Z,19.50
2019-05-06T23:08:17.900Z,19.60
2019-05-06T23:10:44.052Z,19.70
2019-05-06T23:13:12.252Z,19.70
2019-05-06T23:15:38.091Z,19.00
2019-05-06T23:22:58.330Z,19.10
2019-05-06T23:27:52.491Z,19.40
2019-05-06T23:32:45.347Z,19.30
2019-05-06T23:35:12.795Z,20.00
2019-05-06T23:41:02.007Z,19.00
2019-05-06T23:46:52.802Z,19.10
2019-05-06T23:49:56.055Z,19.50
2019-05-06T23:52:59.483Z,19.70
2019-05-06T23:56:03.012Z,19.30
2019-05-06T23:58:32.028Z,19.50
